Echo Bay, Canada
Current Conditions -  °F | °C
As of 7:55 PM on Wednesday 22 Oct 2014 (Local Time) from KANJ Reporting Station
Clear Clear  
Wind Chill: 41°   Ceiling: Unl
Heat Index: 41°   Visibility: 10mi
Dew Point: 30°   Wind: 3mph
Humidity: 65%   Direction: 180°S
Pressure: 30.28"   Gusts: NA
Location:  46.48°N, 84.07°W
Report Text: KANJ 222355Z AUTO 18003KT 10SM CLR 05/M01 A3028 RMK AO2 SLP261 T00501011 10100 20050 56012
Loading
Personal Weather Stations






























Interactive Weather Map
Tropical Storm Tracking
New forecast layout! Learn more

10-Day Weather Forecast

Advertisements
Track Severe Weather on mobile